Time;durP1;ratioP1;P1;durP2;ratioP2;P2;SDS_P1;SDS_P2;PMS_P1;PMS_P2;Temp;Humidity;BMP_temperature;BMP_pressure;BME280_temperature;BME280_humidity;BME280_pressure;Samples;Min_cycle;Max_cycle;Signal;HPM_P1;HPM_P2
2021/12/12 00:00:01;;;;;;;56.70;33.50;;;;;;;-1.00;75.49;100956.80;103114;1322;22696;-75
2021/12/12 00:02:55;;;;;;;54.90;31.60;;;;;;;-1.07;75.57;100959.58;102841;1323;22600;-75
2021/12/12 00:05:28;;;;;;;59.60;32.00;;;;;;;-1.21;75.75;100967.91;102929;1323;22561;-77
2021/12/12 00:07:56;;;;;;;52.90;29.70;;;;;;;-1.29;75.95;100975.65;103227;1323;24232;-73
2021/12/12 00:10:26;;;;;;;55.70;31.00;;;;;;;-1.33;76.11;100973.04;103184;1323;22558;-80
2021/12/12 00:13:00;;;;;;;59.30;34.70;;;;;;;-1.36;76.21;100976.17;102928;1323;22591;-74
2021/12/12 00:15:27;;;;;;;55.90;32.10;;;;;;;-1.30;76.85;100984.21;102738;1323;22590;-74
2021/12/12 00:17:54;;;;;;;54.90;31.40;;;;;;;-1.20;76.77;100986.27;103203;1323;24237;-76
2021/12/12 00:20:26;;;;;;;58.10;31.00;;;;;;;-1.15;76.61;100986.15;103107;1323;24248;-78
2021/12/12 00:22:58;;;;;;;60.60;29.00;;;;;;;-1.14;76.42;100988.31;103316;1323;22665;-75
2021/12/12 00:25:32;;;;;;;81.40;29.00;;;;;;;-1.15;76.19;100985.98;103167;1323;25321;-74
2021/12/12 00:28:01;;;;;;;42.80;24.50;;;;;;;-1.13;76.50;100981.25;103065;1323;25470;-76
2021/12/12 00:30:28;;;;;;;43.40;23.90;;;;;;;-1.20;75.60;100978.98;102883;1323;26547;-73
2021/12/12 00:32:55;;;;;;;49.90;27.30;;;;;;;-1.38;75.68;100981.06;103168;1320;25445;-76
2021/12/12 00:35:23;;;;;;;55.00;30.30;;;;;;;-1.46;75.75;100981.39;103208;1323;22810;-79
2021/12/12 00:37:56;;;;;;;62.80;32.50;;;;;;;-1.51;76.07;100982.35;103317;1323;22581;-75
2021/12/12 00:40:29;;;;;;;61.80;31.60;;;;;;;-1.59;76.03;100978.48;103201;1322;24233;-77
2021/12/12 00:43:02;;;;;;;90.70;36.60;;;;;;;-1.74;76.26;100978.11;103186;1322;22716;-76
2021/12/12 00:45:31;;;;;;;57.00;31.50;;;;;;;-1.80;76.34;100986.09;103100;1323;22949;-76
2021/12/12 00:47:58;;;;;;;61.00;32.50;;;;;;;-1.89;76.67;100989.46;102990;1323;24293;-73
2021/12/12 00:50:33;;;;;;;51.40;30.30;;;;;;;-1.91;76.77;100993.84;102860;1323;24466;-74
2021/12/12 00:53:03;;;;;;;56.60;30.10;;;;;;;-2.00;76.45;100996.67;102926;1323;25525;-74
2021/12/12 00:55:37;;;;;;;52.00;28.90;;;;;;;-2.05;76.83;100998.30;103024;1323;25366;-75
2021/12/12 00:58:10;;;;;;;58.40;33.80;;;;;;;-2.02;76.90;100994.81;102976;1323;23055;-73
2021/12/12 01:00:47;;;;;;;48.10;27.50;;;;;;;-1.94;77.17;100994.87;102951;1323;25554;-73
2021/12/12 01:03:16;;;;;;;61.90;32.60;;;;;;;-1.91;76.90;100996.27;102874;1323;23957;-75
2021/12/12 01:05:46;;;;;;;62.70;33.50;;;;;;;-1.93;76.69;100995.10;103079;1323;25279;-74
2021/12/12 01:08:14;;;;;;;54.30;31.60;;;;;;;-1.92;77.05;101001.22;103053;1323;24250;-75
2021/12/12 01:10:48;;;;;;;50.80;28.10;;;;;;;-1.80;77.39;101001.65;102984;1324;22576;-77
2021/12/12 01:13:16;;;;;;;48.30;29.00;;;;;;;-1.76;76.67;101004.09;103079;1322;22588;-74
2021/12/12 01:15:52;;;;;;;48.90;28.90;;;;;;;-1.82;76.54;101000.15;102789;1323;25994;-75
2021/12/12 01:18:24;;;;;;;;;;;;;;;-1.86;76.73;100996.70;102724;1323;22561;-74
2021/12/12 01:21:19;;;;;;;50.10;27.50;;;;;;;-1.89;76.97;100996.70;102958;1323;22592;-75
2021/12/12 01:23:53;;;;;;;65.30;30.50;;;;;;;-1.86;76.99;100991.47;103190;1322;24893;-79
2021/12/12 01:26:20;;;;;;;68.00;35.00;;;;;;;-1.78;77.28;100984.30;102757;1329;26548;-78
2021/12/12 01:28:53;;;;;;;63.30;33.60;;;;;;;-1.65;77.34;100984.42;102553;1329;22728;-77
2021/12/12 01:31:28;;;;;;;59.30;31.40;;;;;;;-1.51;77.45;100984.76;102599;1329;24232;-78
2021/12/12 01:34:14;;;;;;;54.80;29.50;;;;;;;-1.37;77.27;100984.23;102126;1329;25277;-79
2021/12/12 01:37:03;;;;;;;58.80;31.00;;;;;;;-1.23;77.34;100981.98;102315;1329;25581;-78
2021/12/12 01:39:35;;;;;;;58.40;30.20;;;;;;;-1.11;77.01;100979.59;102387;1329;22619;-76
2021/12/12 01:42:17;;;;;;;57.80;30.20;;;;;;;-1.01;77.09;100981.14;102386;1329;22590;-79
2021/12/12 01:44:52;;;;;;;58.60;29.70;;;;;;;-0.91;76.64;100979.16;102685;1323;25382;-78
2021/12/12 01:47:25;;;;;;;59.80;32.30;;;;;;;-0.85;76.39;100978.26;102932;1323;24349;-78
2021/12/12 01:49:59;;;;;;;66.60;31.20;;;;;;;-0.85;75.76;100985.32;102983;1323;23347;-75
2021/12/12 01:52:28;;;;;;;66.70;33.40;;;;;;;-0.89;75.75;100985.30;102817;1323;22703;-77
2021/12/12 01:55:44;;;;;;;59.00;29.90;;;;;;;-0.93;75.78;100980.79;102856;1323;22650;-76
2021/12/12 01:58:19;;;;;;;61.30;30.90;;;;;;;-0.85;75.89;100981.17;102449;1323;24266;-76
2021/12/12 02:00:54;;;;;;;62.70;33.00;;;;;;;-0.93;75.74;100979.02;102858;1318;25408;-75
2021/12/12 02:03:26;;;;;;;60.60;33.10;;;;;;;-0.93;75.86;100979.05;102947;1323;25665;-77
2021/12/12 02:05:56;;;;;;;60.80;31.20;;;;;;;-0.91;76.13;100979.68;102822;1323;23370;-77
2021/12/12 02:08:26;;;;;;;71.20;31.30;;;;;;;-0.86;75.90;100977.50;103200;1323;23138;-78
2021/12/12 02:10:57;;;;;;;69.20;29.50;;;;;;;-0.97;75.71;100974.55;103090;1323;22643;-78
2021/12/12 02:13:27;;;;;;;67.70;29.90;;;;;;;-1.00;75.79;100981.31;102787;1323;24221;-77
2021/12/12 02:15:58;;;;;;;62.90;31.60;;;;;;;-1.06;75.93;100981.41;103102;1317;22788;-79
2021/12/12 02:18:31;;;;;;;70.90;33.00;;;;;;;-1.07;75.93;100985.29;102927;1323;22910;-77
2021/12/12 02:37:26;;;;;;;;;;;;;;;-1.00;76.41;101004.52;103108;1323;24254;-78
2021/12/12 02:39:54;;;;;;;;;;;;;;;-1.00;76.39;101007.80;103130;1323;23721;-77
2021/12/12 02:42:22;;;;;;;;;;;;;;;-0.98;76.41;101009.25;103088;1323;22580;-77
2021/12/12 02:44:54;;;;;;;;;;;;;;;-0.89;76.62;101006.94;103090;1323;25549;-76
2021/12/12 02:47:31;;;;;;;;;;;;;;;-0.90;76.11;101013.77;103080;1323;22601;-80
2021/12/12 02:50:13;;;;;;;;;;;;;;;-1.07;75.77;101018.54;102959;1323;25214;-77
2021/12/12 02:52:42;;;;;;;;;;;;;;;-1.21;75.90;101018.20;103146;1323;22577;-79
2021/12/12 02:55:14;;;;;;;;;;;;;;;-1.26;76.66;101019.54;103392;1323;25925;-76
2021/12/12 02:57:41;;;;;;;;;;;;;;;-1.18;76.93;101028.17;103002;1323;22866;-78
2021/12/12 03:00:10;;;;;;;;;;;;;;;-1.22;76.34;101027.34;103153;1323;24085;-77
2021/12/12 03:02:45;;;;;;;;;;;;;;;-1.26;76.82;101026.08;102998;1322;22646;-76
2021/12/12 03:05:14;;;;;;;;;;;;;;;-1.23;76.64;101025.36;103250;1323;22949;-78
2021/12/12 03:07:42;;;;;;;;;;;;;;;-1.33;76.39;101025.92;103207;1323;25556;-76
2021/12/12 03:10:11;;;;;;;;;;;;;;;-1.37;76.78;101029.18;103121;1323;25536;-76
2021/12/12 03:12:38;;;;;;;;;;;;;;;-1.31;77.20;101035.13;103377;1323;22501;-74
2021/12/12 03:15:14;;;;;;;;;;;;;;;-1.35;76.93;101031.35;103599;1323;24296;-77
2021/12/12 03:17:42;;;;;;;;;;;;;;;-1.39;77.13;101035.12;103018;1323;22535;-79
2021/12/12 03:20:23;;;;;;;;;;;;;;;-1.44;76.87;101032.95;103167;1323;24223;-79
2021/12/12 03:22:55;;;;;;;;;;;;;;;-1.43;77.53;101030.27;103087;1323;24701;-77
2021/12/12 03:25:22;;;;;;;;;;;;;;;-1.41;77.39;101029.70;103106;1322;24233;-77
2021/12/12 03:27:50;;;;;;;;;;;;;;;-1.37;77.54;101026.91;102949;1318;24631;-76
2021/12/12 03:30:17;;;;;;;;;;;;;;;-1.33;77.72;101026.94;102790;1323;23018;-73
2021/12/12 03:32:44;;;;;;;;;;;;;;;-1.35;77.50;101026.66;102904;1322;24081;-74
2021/12/12 03:35:11;;;;;;;;;;;;;;;-1.36;77.33;101031.10;103040;1321;26667;-74
2021/12/12 03:37:38;;;;;;;;;;;;;;;-1.41;77.43;101032.58;102903;1323;22650;-74
2021/12/12 03:40:19;;;;;;;;;;;;;;;-1.46;77.42;101032.88;103042;1323;22591;-79
2021/12/12 03:42:47;;;;;;;;;;;;;;;-1.47;77.66;101030.23;102956;1322;22810;-76
2021/12/12 03:45:15;;;;;;;;;;;;;;;-1.47;77.68;101033.52;103100;1323;23961;-76
2021/12/12 03:47:48;;;;;;;;;;;;;;;-1.45;77.75;101037.75;102991;1323;22661;-77
2021/12/12 03:50:18;;;;;;;;;;;;;;;-1.39;78.21;101040.14;102849;1323;22645;-75
2021/12/12 03:52:46;;;;;;;;;;;;;;;-1.32;78.04;101038.92;102930;1323;25499;-76
2021/12/12 03:55:14;;;;;;;;;;;;;;;-1.33;77.74;101034.54;102973;1323;22913;-75
2021/12/12 03:57:41;;;;;;;;;;;;;;;-1.36;77.66;101035.45;103128;1315;22629;-78
2021/12/12 04:00:12;;;;;;;;;;;;;;;-1.41;77.63;101033.81;103157;1322;26624;-75
2021/12/12 04:02:39;;;;;;;;;;;;;;;-1.38;78.11;101035.16;103034;1323;25218;-78
2021/12/12 04:05:06;;;;;;;;;;;;;;;-1.26;78.52;101041.63;103101;1318;25341;-75
2021/12/12 04:07:34;;;;;;;;;;;;;;;-1.22;77.98;101044.91;103112;1322;23924;-78
2021/12/12 04:10:01;;;;;;;;;;;;;;;-1.26;77.63;101046.11;103168;1323;25224;-75
2021/12/12 04:12:28;;;;;;;;;;;;;;;-1.25;77.57;101047.73;103127;1323;25975;-75
2021/12/12 04:14:56;;;;;;;;;;;;;;;-1.27;77.58;101052.11;102969;1323;24233;-80
2021/12/12 04:17:25;;;;;;;;;;;;;;;-1.26;77.58;101057.19;103091;1319;26492;-74
2021/12/12 04:19:54;;;;;;;;;;;;;;;-1.26;77.74;101062.73;103365;1323;22544;-77
2021/12/12 04:22:21;;;;;;;;;;;;;;;-1.20;77.84;101065.96;102904;1322;22550;-79
2021/12/12 04:24:50;;;;;;;;;;;;;;;-1.23;77.48;101067.35;103091;1318;23102;-77
2021/12/12 04:27:18;;;;;;;;;;;;;;;-1.24;77.56;101069.38;103150;1323;23923;-77
2021/12/12 04:29:47;;;;;;;;;;;;;;;-1.22;77.72;101070.15;103159;1323;24217;-78
2021/12/12 04:32:15;;;;;;;;;;;;;;;-1.21;77.57;101077.11;103075;1323;24267;-76
2021/12/12 04:34:53;;;;;;;;;;;;;;;-1.20;77.59;101087.39;103155;1323;22553;-74
2021/12/12 04:37:20;;;;;;;;;;;;;;;-1.13;77.88;101093.27;103184;1319;25238;-76
2021/12/12 04:39:50;;;;;;;;;;;;;;;-1.06;77.80;101102.23;103167;1323;22561;-76
2021/12/12 04:42:19;;;;;;;;;;;;;;;-0.98;77.90;101104.89;102965;1323;25209;-75
2021/12/12 04:44:48;;;;;;;;;;;;;;;-0.97;77.48;101105.45;103038;1322;23307;-74
2021/12/12 04:50:16;;;;;;;;;;;;;;;-1.17;77.33;101110.14;103156;1323;23373;-74
2021/12/12 04:52:49;;;;;;;;;;;;;;;-1.25;77.41;101111.19;102989;1323;22810;-73
2021/12/12 04:55:31;;;;;;;;;;;;;;;-1.23;77.64;101116.60;102853;1326;25197;-74
2021/12/12 04:58:04;;;;;;;;;;;;;;;-1.26;77.54;101116.81;102904;1323;23650;-74
2021/12/12 05:00:33;;;;;;;;;;;;;;;-1.21;77.79;101122.23;102873;1324;26709;-75
2021/12/12 05:03:18;;;;;;;;;;;;;;;-1.23;77.60;101121.63;102959;1323;26520;-77
2021/12/12 05:05:58;;;;;;;;;;;;;;;-1.28;77.59;101123.80;102920;1316;25570;-77
2021/12/12 05:08:30;;;;;;;;;;;;;;;-1.29;77.79;101121.52;103080;1323;22632;-75
2021/12/12 05:10:59;;;;;;;;;;;;;;;-1.27;78.14;101120.58;103017;1323;26581;-78
2021/12/12 05:13:35;;;;;;;;;;;;;;;-1.22;77.85;101124.27;103143;1322;25332;-77
2021/12/12 05:16:06;;;;;;;;;;;;;;;-1.20;77.90;101127.30;103016;1318;25542;-77
2021/12/12 05:18:36;;;;;;;;;;;;;;;-1.23;77.56;101128.02;103052;1317;25311;-75
2021/12/12 05:21:08;;;;;;;;;;;;;;;-1.31;77.43;101136.09;102990;1318;22546;-77
2021/12/12 05:23:37;;;;;;;;;;;;;;;-1.34;77.85;101131.45;103047;1318;23984;-76
2021/12/12 05:26:09;;;;;;;;;;;;;;;-1.33;77.97;101132.36;103077;1321;24253;-77
2021/12/12 05:28:41;;;;;;;;;;;;;;;-1.29;77.78;101138.61;103171;1324;25240;-75
2021/12/12 05:31:11;;;;;;;;;;;;;;;-1.30;77.75;101137.33;103223;1323;23282;-73
2021/12/12 05:33:39;;;;;;;;;;;;;;;-1.41;77.33;101135.41;103182;1318;24856;-77
2021/12/12 05:36:10;;;;;;;;;;;;;;;-1.49;77.61;101139.84;103098;1323;24238;-78
2021/12/12 05:38:38;;;;;;;;;;;;;;;-1.47;78.03;101144.08;103110;1322;25473;-79
2021/12/12 05:41:06;;;;;;;;;;;;;;;-1.48;77.87;101143.84;103169;1318;24289;-78
2021/12/12 05:43:34;;;;;;;;;;;;;;;-1.42;78.25;101144.55;102423;1324;22568;-79
2021/12/12 05:46:01;;;;;;;;;;;;;;;-1.30;78.26;101145.14;102504;1330;22580;-81
2021/12/12 05:48:29;;;;;;;;;;;;;;;-1.23;78.14;101146.50;102231;1329;22649;-79
2021/12/12 05:50:56;;;;;;;;;;;;;;;-1.23;77.71;101144.24;102522;1329;22640;-79
2021/12/12 05:53:23;;;;;;;;;;;;;;;-1.20;78.04;101147.20;102120;1330;22579;-78
2021/12/12 05:55:50;;;;;;;;;;;;;;;-1.14;77.86;101151.45;102391;1330;25400;-77
2021/12/12 05:58:21;;;;;;;;;;;;;;;-1.11;77.90;101164.05;102590;1329;24263;-77
2021/12/12 06:00:56;;;;;;;;;;;;;;;-1.04;77.86;101170.48;102575;1330;25274;-77
2021/12/12 06:03:25;;;;;;;;;;;;;;;-0.94;78.13;101168.74;103167;1323;25301;-77
2021/12/12 06:05:54;;;;;;;;;;;;;;;-0.90;77.81;101164.95;102943;1323;22548;-77
2021/12/12 06:08:22;;;;;;;;;;;;;;;-0.86;77.79;101167.17;102949;1323;22887;-77
2021/12/12 06:10:51;;;;;;;;;;;;;;;-0.81;77.58;101174.71;102672;1330;22668;-77
2021/12/12 06:13:18;;;;;;;;;;;;;;;-0.86;77.08;101180.00;102682;1330;24188;-77
2021/12/12 06:15:50;;;;;;;;;;;;;;;-0.86;77.01;101183.14;102622;1328;24079;-77
2021/12/12 06:18:21;;;;;;;;;;;;;;;-0.89;76.91;101187.27;102505;1328;22559;-75
2021/12/12 06:20:49;;;;;;;;;;;;;;;-0.95;76.98;101179.70;102547;1329;22573;-76
2021/12/12 06:23:16;;;;;;;;;;;;;;;-1.00;77.11;101183.64;102724;1329;22584;-77
2021/12/12 06:25:44;;;;;;;;;;;;;;;-1.05;77.24;101186.30;102655;1328;22787;-76
2021/12/12 06:28:17;;;;;;;;;;;;;;;-1.07;77.40;101190.73;102684;1325;22793;-77
2021/12/12 06:30:44;;;;;;;;;;;;;;;-1.11;77.41;101184.45;103280;1324;24685;-76
2021/12/12 06:33:12;;;;;;;;;;;;;;;-1.19;77.28;101183.00;103088;1324;23145;-75
2021/12/12 06:35:39;;;;;;;;;;;;;;;-1.26;77.39;101184.94;103129;1323;22558;-75
2021/12/12 06:38:09;;;;;;;;;;;;;;;-1.25;77.69;101188.60;103115;1323;25580;-75
2021/12/12 06:40:37;;;;;;;;;;;;;;;-1.23;77.69;101185.56;103135;1323;22591;-75
2021/12/12 06:43:05;;;;;;;;;;;;;;;-1.26;77.78;101188.91;103122;1323;25371;-75
2021/12/12 06:45:32;;;;;;;;;;;;;;;-1.25;77.60;101187.02;102993;1323;22548;-76
2021/12/12 06:47:59;;;;;;;;;;;;;;;-1.26;77.68;101189.05;103130;1323;22586;-75
2021/12/12 06:50:27;;;;;;;;;;;;;;;-1.21;77.89;101191.73;102636;1329;25424;-76
2021/12/12 06:52:58;;;;;;;;;;;;;;;-1.17;77.97;101192.11;102652;1330;22551;-76
2021/12/12 06:55:25;;;;;;;;;;;;;;;-1.14;77.64;101194.84;102449;1329;25306;-76
2021/12/12 06:57:52;;;;;;;;;;;;;;;-1.11;77.93;101190.02;102491;1330;22555;-75
2021/12/12 07:00:20;;;;;;;;;;;;;;;-1.15;77.35;101193.23;102187;1321;292227;-77
2021/12/12 07:02:48;;;;;;;;;;;;;;;-1.24;77.63;101196.09;102597;1328;25241;-75
2021/12/12 07:05:17;;;;;;;;;;;;;;;-1.22;78.08;101197.02;102731;1330;25425;-76
2021/12/12 07:07:45;;;;;;;;;;;;;;;-1.18;78.11;101195.69;101891;1330;25235;-76
2021/12/12 07:10:13;;;;;;;;;;;;;;;-1.16;78.07;101198.22;102293;1330;24246;-75
2021/12/12 07:12:40;;;;;;;;;;;;;;;-1.23;77.63;101203.75;102125;1330;25570;-77
2021/12/12 07:15:09;;;;;;;;;;;;;;;-1.25;77.90;101209.48;102707;1330;24157;-78
2021/12/12 07:17:36;;;;;;;;;;;;;;;-1.26;78.01;101216.89;102343;1329;23688;-77
2021/12/12 07:20:04;;;;;;;;;;;;;;;-1.28;77.96;101221.60;102226;1329;25290;-77
2021/12/12 07:22:31;;;;;;;;;;;;;;;-1.32;78.09;101225.59;102293;1330;22572;-77
2021/12/12 07:25:00;;;;;;;;;;;;;;;-1.29;78.34;101230.02;102130;1333;22540;-79
2021/12/12 07:27:26;;;;;;;;;;;;;;;-1.23;78.54;101233.09;102870;1325;25243;-77
2021/12/12 07:29:57;;;;;;;;;;;;;;;-1.21;78.17;101228.40;102665;1325;25422;-78
2021/12/12 07:32:26;;;;;;;;;;;;;;;-1.28;77.71;101233.71;102457;1330;22580;-77
2021/12/12 07:34:54;;;;;;;;;;;;;;;-1.37;77.44;101235.34;102385;1331;25225;-76
2021/12/12 07:37:21;;;;;;;;;;;;;;;-1.46;77.62;101235.88;102630;1331;25221;-78
2021/12/12 07:39:48;;;;;;;;;;;;;;;-1.53;77.76;101238.45;102602;1330;24451;-78
2021/12/12 07:42:16;;;;;;;;;;;;;;;-1.50;78.52;101244.32;102359;1328;25239;-82
2021/12/12 07:44:44;;;;;;;;;;;;;;;-1.46;78.22;101247.98;102529;1330;24336;-79
2021/12/12 07:47:13;;;;;;;;;;;;;;;-1.47;78.00;101247.39;102514;1329;22755;-78
2021/12/12 07:49:42;;;;;;;;;;;;;;;-1.58;77.99;101248.55;102854;1324;22635;-78
2021/12/12 07:52:12;;;;;;;;;;;;;;;-1.57;78.24;101252.40;103212;1318;22920;-78
2021/12/12 07:54:40;;;;;;;;;;;;;;;-1.52;78.27;101254.60;102959;1323;23466;-78
2021/12/12 07:57:07;;;;;;;;;;;;;;;-1.51;78.20;101263.25;102940;1323;22896;-80
2021/12/12 07:59:36;;;;;;;;;;;;;;;-1.53;78.07;101266.63;103156;1319;24238;-79
2021/12/12 08:02:04;;;;;;;;;;;;;;;-1.48;78.44;101265.86;103338;1323;24239;-76
2021/12/12 08:04:31;;;;;;;;;;;;;;;-1.41;78.54;101264.15;103402;1323;26493;-76
2021/12/12 08:07:00;;;;;;;;;;;;;;;-1.42;78.18;101263.59;103559;1323;22645;-76
2021/12/12 08:09:29;;;;;;;;;;;;;;;-1.40;78.09;101271.66;103509;1323;22568;-76
2021/12/12 08:11:56;;;;;;;;;;;;;;;-1.40;77.84;101274.92;103205;1323;24418;-76
2021/12/12 08:14:24;;;;;;;;;;;;;;;-1.51;77.55;101272.95;103550;1323;23373;-75
2021/12/12 08:16:52;;;;;;;;;;;;;;;-1.53;77.98;101275.77;103261;1323;26512;-76
2021/12/12 08:19:20;;;;;;;;;;;;;;;-1.45;78.38;101282.44;103262;1323;25895;-74
2021/12/12 08:21:48;;;;;;;;;;;;;;;-1.33;78.22;101283.08;103193;1322;23850;-76
2021/12/12 08:24:16;;;;;;;;;;;;;;;-1.28;77.93;101281.45;103176;1322;24223;-78
2021/12/12 08:26:44;;;;;;;;;;;;;;;-1.28;77.82;101285.59;103591;1323;25357;-75
2021/12/12 08:29:12;;;;;;;;;;;;;;;-1.24;77.90;101288.54;104435;1323;24274;-74
2021/12/12 08:31:39;;;;;;;;;;;;;;;-1.22;77.72;101288.33;103454;1323;23012;-77
2021/12/12 08:34:09;;;;;;;;;;;;;;;-1.26;77.15;101285.34;104126;1323;22599;-77
2021/12/12 08:36:37;;;;;;;;;;;;;;;-1.39;77.04;101287.91;104862;1323;22584;-78
2021/12/12 08:39:05;;;;;;;;;;;;;;;-1.38;77.34;101284.17;105317;1319;24083;-78
2021/12/12 08:41:32;;;;;;;;;;;;;;;-1.34;77.64;101293.91;104140;1323;25229;-77
2021/12/12 08:44:00;;;;;;;;;;;;;;;-1.33;77.31;101300.83;104449;1323;22527;-76
2021/12/12 08:46:27;;;;;;;;;;;;;;;-1.39;77.38;101297.77;104548;1322;22570;-76
2021/12/12 08:48:53;;;;;;;;;;;;;;;-1.40;77.28;101296.00;106228;1315;22590;-77
2021/12/12 08:51:30;;;;;;;;;;;;;;;-1.41;77.44;101295.75;106112;1322;22567;-78
2021/12/12 08:54:01;;;;;;;;;;;;;;;-1.38;77.54;101298.17;106021;1325;22567;-78
2021/12/12 08:56:42;;;;;;;;;;;;;;;-1.31;77.46;101301.99;106178;1322;24419;-80
2021/12/12 08:59:11;;;;;;;;;;;;;;;-1.22;77.73;101300.58;106216;1323;22912;-79
2021/12/12 09:01:39;;;;;;;;;;;;;;;-1.10;77.69;101299.48;104827;1319;25350;-78
2021/12/12 09:04:08;;;;;;;;;;;;;;;-1.17;76.65;101297.54;103134;1323;22556;-79
2021/12/12 09:06:54;;;;;;;;;;;;;;;-1.36;76.32;101297.59;103137;1323;22692;-75
2021/12/12 09:09:27;;;;;;;;;;;;;;;-1.42;77.07;101290.02;103187;1322;22569;-74
2021/12/12 09:11:58;;;;;;;;;;;;;;;-1.38;77.03;101294.04;103279;1323;22570;-74
2021/12/12 09:14:31;;;;;;;;;;;;;;;-1.41;76.71;101296.81;103018;1323;25279;-77
2021/12/12 09:17:05;;;;;;;;;;;;;;;-1.49;76.68;101298.64;103235;1322;25383;-76
2021/12/12 09:19:42;;;;;;;;;;;;;;;-1.55;76.78;101292.77;103118;1323;22811;-76
2021/12/12 09:22:26;;;;;;;;;;;;;;;-1.63;76.61;101291.14;103282;1323;23827;-76
2021/12/12 09:24:56;;;;;;;;;;;;;;;-1.63;77.13;101293.02;103038;1323;23965;-77
2021/12/12 09:27:26;;;;;;;;;;;;;;;-1.66;76.84;101286.98;102762;1323;22568;-76
2021/12/12 09:29:58;;;;;;;;;;;;;;;-1.70;76.72;101289.31;102895;1322;22558;-76
2021/12/12 09:32:28;;;;;;;;;;;;;;;-1.85;76.18;101285.41;103381;1323;22777;-76
2021/12/12 09:35:01;;;;;;;;;;;;;;;-2.02;76.43;101284.83;103608;1329;22945;-76
2021/12/12 09:37:50;;;;;;;;;;;;;;;-2.12;76.64;101285.65;103154;1330;23952;-77
2021/12/12 09:40:29;;;;;;;;;;;;;;;-2.19;77.27;101284.22;102407;1328;22558;-76
2021/12/12 09:43:04;;;;;;;;;;;;;;;-2.19;77.48;101285.42;102546;1329;22646;-76
2021/12/12 09:45:31;;;;;;;;;;;;;;;-2.19;77.41;101286.84;102163;1329;22712;-76
2021/12/12 09:53:28;;;;;;;;;;;;;;;-2.47;76.65;101270.20;102805;1323;25196;-76
2021/12/12 09:56:05;;;;;;;;;;;;;;;-2.55;77.46;101269.23;103256;1323;26053;-74
2021/12/12 09:58:51;;;;;;;;;;;;;;;-2.52;78.08;101267.02;103100;1323;22640;-76
2021/12/12 10:01:29;;;;;;;;;;;;;;;-2.43;77.77;101260.25;102888;1323;24289;-75
2021/12/12 10:04:24;;;;;;;;;;;;;;;-2.41;77.52;101253.30;103067;1323;25462;-76
2021/12/12 10:07:09;;;;;;;;;;;;;;;-2.43;77.47;101251.11;103182;1323;22546;-78
2021/12/12 10:09:56;;;;;;;;;;;;;;;-2.31;78.21;101257.48;102903;1323;24164;-79
2021/12/12 10:12:29;;;;;;;;;;;;;;;-2.17;77.81;101266.20;103121;1322;22728;-75
2021/12/12 10:14:56;;;;;;;;;;;;;;;-2.21;77.42;101261.50;102773;1323;23978;-76
2021/12/12 10:17:44;;;;;;;;;;;;;;;-2.17;77.75;101256.04;103178;1321;24254;-76
2021/12/12 10:20:17;;;;;;;;;;;;;;;-2.14;77.39;101262.94;104342;1321;25234;-78
2021/12/12 10:23:02;;;;;;;;;;;;;;;-2.20;77.23;101251.89;103279;1320;25654;-79
2021/12/12 10:25:48;;;;;;;;;;;;;;;-2.23;77.12;101249.64;103033;1322;25357;-77
2021/12/12 10:28:35;;;;;;;;;;;;;;;-2.27;77.46;101251.34;103028;1322;22644;-76
2021/12/12 10:31:02;;;;;;;;;;;;;;;-2.28;77.26;101237.50;103002;1323;26698;-76
2021/12/12 10:33:40;;;;;;;;;;;;;;;-2.30;77.22;101242.17;102916;1323;26531;-76
2021/12/12 10:36:09;;;;;;;;;;;;;;;-2.40;77.11;101243.03;102907;1323;26646;-78
2021/12/12 10:38:52;;;;;;;;;;;;;;;-2.44;77.26;101242.93;103112;1323;23969;-75
2021/12/12 10:41:28;;;;;;;;;;;;;;;-2.38;77.72;101270.58;103076;1323;25483;-77
2021/12/12 10:43:58;;;;;;;;;;;;;;;-2.40;77.24;101266.66;103156;1323;22542;-74
2021/12/12 10:46:32;;;;;;;;;;;;;;;-2.40;77.49;101257.30;103183;1318;22588;-77
2021/12/12 10:49:02;;;;;;;;;;;;;;;-2.37;77.27;101267.15;103232;1323;22574;-77
2021/12/12 10:51:33;;;;;;;;;;;;;;;-2.32;77.19;101254.33;103191;1323;22564;-77
2021/12/12 10:54:13;;;;;;;;;;;;;;;-2.36;77.19;101253.79;102852;1323;22557;-81
2021/12/12 10:56:40;;;;;;;;;;;;;;;-2.25;77.96;101266.28;103317;1320;23317;-78
2021/12/12 10:59:19;;;;;;;;;;;;;;;-2.19;77.31;101265.05;103157;1323;22621;-81
2021/12/12 11:01:47;;;;;;;;;;;;;;;-2.36;76.95;101262.54;103364;1316;25855;-77
2021/12/12 11:04:22;;;;;;;;;;;;;;;-2.33;77.51;101266.85;103173;1321;24723;-77
2021/12/12 11:06:52;;;;;;;;;;;;;;;-2.33;77.45;101270.14;103227;1318;25342;-77
2021/12/12 11:09:19;;;;;;;;;;;;;;;-2.42;77.32;101275.51;103231;1323;22550;-78
2021/12/12 11:11:51;;;;;;;;;;;;;;;-2.46;77.72;101272.98;103554;1323;24277;-75
2021/12/12 11:14:24;;;;;;;;;;;;;;;-2.38;78.44;101275.41;103739;1323;22938;-81
2021/12/12 11:16:54;;;;;;;;;;;;;;;-2.24;78.54;101266.83;104633;1322;24373;-80
2021/12/12 11:19:35;;;;;;;;;;;;;;;-2.07;78.44;101268.30;103171;1324;25369;-80
2021/12/12 11:22:13;;;;;;;;;;;;;;;-2.05;77.68;101261.73;102956;1322;22579;-79
2021/12/12 11:25:00;;;;;;;;;;;;;;;-1.89;78.24;101259.81;104294;1323;22618;-91
2021/12/12 11:31:33;;;;;;;;;;;;;;;-1.44;77.95;101258.79;106431;1327;22617;-92
2021/12/12 11:35:01;;;;;;;;;;;;;;;-1.31;76.87;101254.27;104354;1331;22519;-79
2021/12/12 11:37:41;;;;;;;;;;;;;;;-1.26;76.92;101253.38;102383;1331;22634;-77
2021/12/12 11:40:13;;;;;;;;;;;;;;;-1.32;76.07;101246.45;103017;1330;22569;-80
2021/12/12 11:43:02;;;;;;;;;;;;;;;-1.51;76.03;101256.39;104389;1331;23118;-77
2021/12/12 11:45:38;;;;;;;;;;;;;;;-1.54;76.72;101261.20;102295;1331;25222;-77
2021/12/12 11:48:12;;;;;;;;;;;;;;;-1.45;76.61;101264.08;102274;1331;22794;-76
2021/12/12 11:50:43;;;;;;;;;;;;;;;-1.49;76.21;101266.31;102678;1328;25394;-77
2021/12/12 11:53:20;;;;;;;;;;;;;;;-1.60;76.33;101262.09;102716;1329;24096;-76
2021/12/12 11:55:47;;;;;;;;;;;;;;;-1.56;76.90;101267.68;102757;1329;23121;-78
2021/12/12 11:58:19;;;;;;;;;;;;;;;-1.51;76.65;101261.38;102729;1329;22954;-78
2021/12/12 12:00:59;;;;;;;;;;;;;;;-1.54;76.55;101262.58;102556;1329;22551;-77
2021/12/12 12:03:48;;;;;;;;;;;;;;;-1.60;76.41;101264.48;102669;1329;25423;-78
2021/12/12 12:06:15;;;;;;;;;;;;;;;-1.72;76.45;101266.63;102472;1329;22788;-78
2021/12/12 12:08:53;;;;;;;;;;;;;;;-1.69;77.33;101265.23;102700;1329;25364;-77
2021/12/12 12:11:31;;;;;;;;;;;;;;;-1.52;77.60;101263.37;102666;1327;25964;-77
2021/12/12 12:14:10;;;;;;;;;;;;;;;-1.34;77.66;101260.88;102913;1325;22638;-77
2021/12/12 12:16:58;;;;;;;;;;;;;;;-1.20;77.15;101258.48;102801;1326;22954;-78
2021/12/12 12:19:31;;;;;;;;;;;;;;;-1.34;76.09;101261.40;102925;1325;22709;-77
2021/12/12 12:22:23;;;;;;;;;;;;;;;-1.48;76.36;101251.67;102924;1325;22695;-77
2021/12/12 12:24:59;;;;;;;;;;;;;;;-1.54;76.99;101253.74;102416;1329;23939;-77
2021/12/12 12:27:34;;;;;;;;;;;;;;;-1.48;77.00;101252.52;102519;1329;22567;-81
2021/12/12 12:30:02;;;;;;;;;;;;;;;-1.53;76.98;101254.35;102567;1324;25713;-78
2021/12/12 12:32:41;;;;;;;;;;;;;;;-1.59;76.71;101250.04;102618;1329;22596;-77
2021/12/12 12:35:27;;;;;;;;;;;;;;;-1.79;76.34;101249.50;102219;1333;25248;-78
2021/12/12 12:38:12;;;;;;;;;;;;;;;-1.96;76.67;101248.55;102107;1333;22635;-79
2021/12/12 12:40:57;;;;;;;;;;;;;;;-2.02;77.24;101249.43;102079;1333;25410;-78
2021/12/12 12:43:43;;;;;;;;;;;;;;;-2.02;77.17;101250.30;102285;1329;22580;-78
2021/12/12 12:46:29;;;;;;;;;;;;;;;-1.92;77.61;101245.33;102661;1329;25566;-78
2021/12/12 12:49:14;;;;;;;;;;;;;;;-1.76;77.95;101251.19;102599;1329;24288;-78
2021/12/12 12:51:59;;;;;;;;;;;;;;;-1.70;77.35;101247.72;102545;1329;24747;-77
2021/12/12 12:54:38;;;;;;;;;;;;;;;-1.63;77.52;101243.45;102986;1326;24230;-78
2021/12/12 12:57:22;;;;;;;;;;;;;;;-1.66;76.66;101238.45;102740;1326;23949;-77
2021/12/12 13:00:08;;;;;;;;;;;;;;;-1.75;76.66;101236.25;102831;1322;25594;-77
2021/12/12 13:02:34;;;;;;;;;;;;;;;-1.84;76.76;101235.57;102866;1326;22670;-77
2021/12/12 13:05:08;;;;;;;;;;;;;;;-1.94;76.98;101232.45;102783;1326;23964;-77